CheckWX is a tool to help pilots better visualize weather data.  It is not intended as a substitute for an official pre-flight weather briefing.

02:44:47 UTC

KMGM TAF
Montgomery Regional (Dannelly Field) Airport
Montgomery, Alabama, USA
KMGM 222340Z 2300/2324 00000KT P6SM SKC FM231500 20005KT P6SM SKC

Apr-23@
00:00 UTC

Apr-23 @ 00:00 UTC

Apr-23@
15:00 UTC

Apr-23 @ 15:00 UTC

KMGM 222340Z 2300/2324 00000KT P6SM SKC
Cloud Levels
  • Clear skies

Apr-23@
15:00 UTC

Apr-23 @ 15:00 UTC

Apr-24@
00:00 UTC

Apr-24 @ 00:00 UTC

FM231500 20005KT P6SM SKC

From

From Standard forecast or significant change

Wind
  • 200° at 5 KTS
Cloud Levels
  • Clear skies